Terminal Aerodrome Forecast
Issued by NWS Wilmington, OH

Home | Current Version | Previous Version | Text Only | Print | Product List | Glossary On
Versions: 1 2 3 4 5 6 7 8 9 10 11 12 13 14 15 16 17 18 19 20 21 22
000
FTUS41 KILN 250859 AAA
TAFCVG
TAF AMD
KCVG 250859Z 2509/2612 18005KT P6SM OVC080
     FM251100 19005KT P6SM VCSH BKN050
     FM251700 17010KT P6SM BKN050
     FM260100 17005KT P6SM SCT050=

USA.gov is the U.S. government's official web portal to all federal, state and local government web resources and services.